Time;durP1;ratioP1;P1;durP2;ratioP2;P2;SDS_P1;SDS_P2;PMS_P1;PMS_P2;Temp;Humidity;BMP_temperature;BMP_pressure;BME280_temperature;BME280_humidity;BME280_pressure;Samples;Min_cycle;Max_cycle;Signal;HPM_P1;HPM_P2
2023/09/20 05:16:17;;;;;;;;;;;;;;;4.47;100.00;99303.78;5247009;23;20002;-80
2023/09/20 05:18:42;;;;;;;;;;;;;;;4.39;100.00;99311.84;5031803;28;20379;-82
2023/09/20 05:21:09;;;;;;;;;;;;;;;4.48;100.00;99301.13;5032219;28;19917;-83
2023/09/20 05:23:35;;;;;;;;;;;;;;;4.53;100.00;99309.72;5034524;28;19921;-82
2023/09/20 05:26:00;;;;;;;;;;;;;;;4.52;100.00;99299.28;5035934;28;19955;-85
2023/09/20 05:28:25;;;;;;;;;;;;;;;4.49;100.00;99296.72;5034459;28;20384;-84
2023/09/20 05:30:51;;;;;;;;;;;;;;;4.46;100.00;99305.53;5049865;28;20090;-83
2023/09/20 05:33:16;;;;;;;;;;;;;;;4.50;100.00;99304.56;5034427;28;19921;-83
2023/09/20 05:35:43;;;;;;;;;;;;;;;4.56;100.00;99311.41;5035680;28;19991;-83
2023/09/20 05:38:09;;;;;;;;;;;;;;;4.64;100.00;99296.34;5035703;28;20356;-84
2023/09/20 05:40:34;;;;;;;;;;;;;;;4.73;100.00;99300.47;5035591;28;19979;-84
2023/09/20 05:43:03;;;;;;;;;;;;;;;4.78;100.00;99301.19;5035427;28;19921;-82
2023/09/20 05:45:29;;;;;;;;;;;;;;;4.75;100.00;99296.03;5034338;28;20398;-83
2023/09/20 05:47:54;;;;;;;;;;;;;;;4.73;100.00;99297.84;5035288;28;19921;-84
2023/09/20 05:50:33;;;;;;;;;;;;;;;4.72;100.00;99301.34;5035512;28;19944;-80
2023/09/20 05:52:59;;;;;;;;;;;;;;;4.70;100.00;99296.16;5050541;28;19940;-83
2023/09/20 05:55:25;;;;;;;;;;;;;;;4.68;100.00;99297.97;5035272;28;20372;-81
2023/09/20 05:57:50;;;;;;;;;;;;;;;4.74;100.00;99299.56;5035302;28;20027;-81
2023/09/20 06:00:21;;;;;;;;;;;;;;;4.80;100.00;99286.25;5033893;28;20458;-80
2023/09/20 06:02:47;;;;;;;;;;;;;;;4.72;100.00;99290.84;5034890;28;19921;-80
2023/09/20 06:05:14;;;;;;;;;;;;;;;4.76;100.00;99279.38;5035357;28;19917;-82
2023/09/20 06:07:40;;;;;;;;;;;;;;;4.75;100.00;99282.06;5034952;28;20364;-79
2023/09/20 06:10:06;;;;;;;;;;;;;;;4.87;100.00;99282.56;5035078;28;19967;-84
2023/09/20 06:12:31;;;;;;;;;;;;;;;4.93;100.00;99289.44;5035077;28;20012;-83
2023/09/20 06:14:57;;;;;;;;;;;;;;;4.98;100.00;99291.91;5032263;28;20003;-82
2023/09/20 06:17:22;;;;;;;;;;;;;;;4.99;100.00;99286.63;5034758;28;19921;-81
2023/09/20 06:19:48;;;;;;;;;;;;;;;5.14;100.00;99285.34;5034777;28;19920;-81
2023/09/20 06:22:14;;;;;;;;;;;;;;;5.10;100.00;99283.69;5034857;28;19978;-82
2023/09/20 06:24:43;;;;;;;;;;;;;;;5.09;100.00;99277.59;5034691;28;19917;-82
2023/09/20 06:27:09;;;;;;;;;;;;;;;5.19;100.00;99278.19;5034668;28;19921;-82
2023/09/20 06:29:34;;;;;;;;;;;;;;;5.19;100.00;99278.19;5032097;28;20410;-82
2023/09/20 06:31:59;;;;;;;;;;;;;;;5.20;100.00;99279.91;5034462;28;20022;-84
2023/09/20 06:34:26;;;;;;;;;;;;;;;5.12;100.00;99281.03;5033530;28;19921;-82
2023/09/20 06:36:51;;;;;;;;;;;;;;;5.04;100.00;99273.34;5034563;28;20376;-82
2023/09/20 06:39:18;;;;;;;;;;;;;;;5.21;100.00;99276.38;5034506;28;20024;-82
2023/09/20 06:41:44;;;;;;;;;;;;;;;5.18;100.00;99279.06;5034365;28;20136;-81
2023/09/20 06:44:12;;;;;;;;;;;;;;;5.29;100.00;99278.78;5034495;28;20380;-82
2023/09/20 06:46:38;;;;;;;;;;;;;;;5.19;100.00;99277.34;5033374;28;19917;-82
2023/09/20 06:49:03;;;;;;;;;;;;;;;5.17;100.00;99272.13;5034535;28;20395;-84
2023/09/20 06:51:28;;;;;;;;;;;;;;;5.33;100.00;99275.16;5033126;28;19917;-83
2023/09/20 06:53:53;;;;;;;;;;;;;;;5.35;100.00;99273.34;5034219;28;19921;-82
2023/09/20 06:56:19;;;;;;;;;;;;;;;5.41;100.00;99277.56;5034232;28;20418;-83
2023/09/20 06:58:45;;;;;;;;;;;;;;;5.50;100.00;99277.25;5034289;28;19921;-83
2023/09/20 07:01:10;;;;;;;;;;;;;;;5.40;100.00;99271.44;5033150;28;19960;-83
2023/09/20 07:03:36;;;;;;;;;;;;;;;5.50;100.00;99266.75;5031965;28;19917;-83
2023/09/20 07:06:02;;;;;;;;;;;;;;;5.51;100.00;99272.88;5033975;28;19917;-82
2023/09/20 07:08:34;;;;;;;;;;;;;;;5.35;100.00;99278.59;5034059;28;19995;-84
2023/09/20 07:10:59;;;;;;;;;;;;;;;5.38;100.00;99277.66;5033668;28;20497;-83
2023/09/20 07:13:26;;;;;;;;;;;;;;;5.44;100.00;99275.69;5033951;28;19996;-83
2023/09/20 07:15:54;;;;;;;;;;;;;;;5.53;100.00;99274.53;5032324;28;19964;-88
2023/09/20 07:59:49;;;;;;;;;;;;;;;5.63;100.00;99260.22;5050496;23;19929;-82
2023/09/20 08:02:15;;;;;;;;;;;;;;;5.76;100.00;99258.06;5032143;28;19932;-81
2023/09/20 08:04:40;;;;;;;;;;;;;;;5.79;100.00;99263.25;5046564;28;19927;-82
2023/09/20 08:07:06;;;;;;;;;;;;;;;5.82;100.00;99259.63;5031898;28;20304;-82
2023/09/20 08:09:32;;;;;;;;;;;;;;;5.84;100.00;99265.72;5028683;28;19928;-82
2023/09/20 08:12:00;;;;;;;;;;;;;;;5.74;100.00;99262.50;5031881;28;19917;-81
2023/09/20 08:14:25;;;;;;;;;;;;;;;6.02;100.00;99260.81;5045635;28;20380;-82
2023/09/20 08:19:36;;;;;;;;;;;;;;;6.11;100.00;99255.22;5030254;28;19936;-82
2023/09/20 08:22:01;;;;;;;;;;;;;;;6.16;100.00;99254.19;5031364;28;19943;-82
2023/09/20 09:00:27;;;;;;;;;;;;;;;10.47;100.00;99262.72;5030695;28;19947;-80
2023/09/20 09:02:54;;;;;;;;;;;;;;;9.91;100.00;99254.81;5031140;28;19987;-80
2023/09/20 09:05:20;;;;;;;;;;;;;;;9.58;100.00;99252.00;5030814;28;19921;-80
2023/09/20 09:07:46;;;;;;;;;;;;;;;9.37;100.00;99248.56;5031166;28;19917;-81
2023/09/20 09:10:13;;;;;;;;;;;;;;;9.21;100.00;99249.28;5029373;28;20399;-81
2023/09/20 09:12:38;;;;;;;;;;;;;;;9.07;100.00;99251.69;5030070;28;20792;-82
2023/09/20 09:15:07;;;;;;;;;;;;;;;9.02;100.00;99248.41;5030835;28;19932;-81
2023/09/20 09:17:37;;;;;;;;;;;;;;;8.87;100.00;99250.81;5031254;28;19928;-81
2023/09/20 09:20:05;;;;;;;;;;;;;;;8.71;100.00;99245.34;5030396;28;19921;-82
2023/09/20 09:22:33;;;;;;;;;;;;;;;8.67;100.00;99241.09;5031236;28;19917;-81
2023/09/20 09:24:59;;;;;;;;;;;;;;;8.67;100.00;99242.88;5028046;28;19925;-80
2023/09/20 09:27:24;;;;;;;;;;;;;;;8.68;100.00;99234.91;5025927;28;19944;-82
2023/09/20 09:29:49;;;;;;;;;;;;;;;8.60;100.00;99236.16;5029545;28;19979;-82
2023/09/20 09:32:15;;;;;;;;;;;;;;;8.63;100.00;99228.09;5029760;28;19928;-81
2023/09/20 09:34:43;;;;;;;;;;;;;;;8.60;100.00;99226.47;5029993;28;20425;-80
2023/09/20 09:37:14;;;;;;;;;;;;;;;8.49;100.00;99224.28;5030736;28;21009;-83
2023/09/20 09:39:41;;;;;;;;;;;;;;;8.52;100.00;99224.16;5030240;28;19925;-82
2023/09/20 09:42:06;;;;;;;;;;;;;;;8.59;100.00;99230.03;5030118;28;19921;-82
2023/09/20 09:44:52;;;;;;;;;;;;;;;8.57;100.00;99225.72;5029388;28;19975;-81
2023/09/20 09:47:18;;;;;;;;;;;;;;;8.61;100.00;99224.66;5031521;28;19972;-81
2023/09/20 09:49:45;;;;;;;;;;;;;;;8.52;100.00;99221.50;5030014;28;19932;-81
2023/09/20 09:52:11;;;;;;;;;;;;;;;8.50;100.00;99214.56;5031157;28;19921;-81
2023/09/20 09:54:37;;;;;;;;;;;;;;;8.56;100.00;99218.75;5030418;28;20015;-81
2023/09/20 09:57:03;;;;;;;;;;;;;;;8.47;100.00;99210.28;5031503;28;19918;-81
2023/09/20 09:59:28;;;;;;;;;;;;;;;8.47;100.00;99210.28;5027945;28;19932;-81
2023/09/20 10:01:55;;;;;;;;;;;;;;;8.43;100.00;99218.38;5031508;28;19968;-81
2023/09/20 10:04:20;;;;;;;;;;;;;;;8.52;100.00;99212.72;5028317;28;19948;-79
2023/09/20 10:06:51;;;;;;;;;;;;;;;8.52;100.00;99213.59;5031373;28;19921;-85
2023/09/20 10:09:17;;;;;;;;;;;;;;;8.62;100.00;99208.75;5032991;28;20035;-83
2023/09/20 10:11:43;;;;;;;;;;;;;;;8.50;100.00;99204.88;5031919;28;19925;-80
2023/09/20 10:14:10;;;;;;;;;;;;;;;8.54;100.00;99203.81;5033530;28;20004;-83
2023/09/20 10:16:36;;;;;;;;;;;;;;;8.64;100.00;99200.78;5033129;28;20441;-81
2023/09/20 10:19:02;;;;;;;;;;;;;;;8.57;100.00;99204.59;5033714;28;19929;-83
2023/09/20 10:21:30;;;;;;;;;;;;;;;8.58;100.00;99201.03;5034926;28;19925;-82
2023/09/20 10:24:00;;;;;;;;;;;;;;;8.63;100.00;99196.41;5034650;28;19924;-81
2023/09/20 10:26:29;;;;;;;;;;;;;;;8.60;100.00;99192.13;5033755;28;19944;-84
2023/09/20 10:28:59;;;;;;;;;;;;;;;8.56;100.00;99181.78;5032082;28;19925;-82
2023/09/20 10:31:25;;;;;;;;;;;;;;;8.56;100.00;99173.84;5033957;28;20024;-81
2023/09/20 10:33:55;;;;;;;;;;;;;;;8.53;100.00;99175.66;5033381;28;19925;-90
2023/09/20 10:36:23;;;;;;;;;;;;;;;8.59;100.00;99173.72;5032157;28;19921;-81
2023/09/20 10:38:48;;;;;;;;;;;;;;;8.62;100.00;99157.72;5033499;28;19932;-79
2023/09/20 10:41:14;;;;;;;;;;;;;;;8.67;100.00;99155.75;5031418;28;19925;-81
2023/09/20 10:43:41;;;;;;;;;;;;;;;8.56;100.00;99140.38;5031639;28;19999;-79
2023/09/20 10:46:17;;;;;;;;;;;;;;;8.63;100.00;99147.09;5030801;28;19925;-82
2023/09/20 10:48:49;;;;;;;;;;;;;;;8.60;100.00;99141.06;5032592;28;19921;-81
2023/09/20 10:51:33;;;;;;;;;;;;;;;8.54;100.00;99134.31;5028099;28;20331;-88
2023/09/20 10:53:59;;;;;;;;;;;;;;;8.59;100.00;99136.75;5033895;28;19924;-82
2023/09/20 10:56:43;;;;;;;;;;;;;;;8.55;100.00;99128.06;5033626;28;19929;-83
2023/09/20 10:59:13;;;;;;;;;;;;;;;8.47;100.00;99123.16;5031003;28;19994;-80
2023/09/20 11:01:39;;;;;;;;;;;;;;;8.68;100.00;99123.09;5032199;28;21625;-85
2023/09/20 11:04:05;;;;;;;;;;;;;;;8.53;100.00;99122.88;5028194;28;19925;-79
2023/09/20 11:06:31;;;;;;;;;;;;;;;8.52;100.00;99123.81;5031465;28;19921;-82
2023/09/20 11:08:56;;;;;;;;;;;;;;;8.61;100.00;99117.25;5032566;28;19944;-79
2023/09/20 11:11:23;;;;;;;;;;;;;;;8.57;100.00;99106.88;5031427;28;19975;-82
2023/09/20 11:13:48;;;;;;;;;;;;;;;8.64;100.00;99110.97;5030430;28;20010;-81
2023/09/20 11:16:17;;;;;;;;;;;;;;;8.61;100.00;99109.31;5033586;28;19987;-80
2023/09/20 11:18:43;;;;;;;;;;;;;;;8.58;100.00;99104.19;5033661;28;19919;-81
2023/09/20 11:21:08;;;;;;;;;;;;;;;8.58;100.00;99106.81;5032584;28;19928;-80
2023/09/20 11:23:34;;;;;;;;;;;;;;;8.66;100.00;99095.91;5029776;28;19921;-81
2023/09/20 11:25:59;;;;;;;;;;;;;;;8.70;100.00;99094.84;5031211;28;20769;-80
2023/09/20 11:28:37;;;;;;;;;;;;;;;8.74;100.00;99085.84;5028513;28;19929;-83
2023/09/20 11:31:02;;;;;;;;;;;;;;;8.64;100.00;99089.84;5033031;28;20355;-80
2023/09/20 11:33:28;;;;;;;;;;;;;;;8.63;100.00;99088.13;5033475;28;19917;-82
2023/09/20 11:35:53;;;;;;;;;;;;;;;8.66;100.00;99080.94;5031054;28;20368;-81
2023/09/20 11:38:21;;;;;;;;;;;;;;;8.62;100.00;99087.28;5033267;28;19924;-83
2023/09/20 11:40:47;;;;;;;;;;;;;;;8.69;100.00;99072.00;5031585;28;19921;-81
2023/09/20 11:43:17;;;;;;;;;;;;;;;8.70;100.00;99068.44;5029597;28;20346;-82
2023/09/20 11:45:46;;;;;;;;;;;;;;;8.71;100.00;99067.50;5031707;28;19928;-81
2023/09/20 11:48:15;;;;;;;;;;;;;;;8.69;100.00;99064.06;5032006;28;19925;-81
2023/09/20 11:50:44;;;;;;;;;;;;;;;8.80;100.00;99063.56;5031798;28;19948;-82
2023/09/20 11:53:13;;;;;;;;;;;;;;;8.62;100.00;99058.22;5030967;28;19965;-82
2023/09/20 11:55:41;;;;;;;;;;;;;;;8.81;100.00;99046.81;5031703;28;19929;-87
2023/09/20 11:58:07;;;;;;;;;;;;;;;8.82;100.00;99052.03;5032053;28;20308;-86
2023/09/20 12:00:33;;;;;;;;;;;;;;;8.77;100.00;99054.00;5032077;28;20392;-87
2023/09/20 12:02:58;;;;;;;;;;;;;;;8.83;100.00;99042.31;5031339;28;20364;-82
2023/09/20 12:05:24;;;;;;;;;;;;;;;8.84;100.00;99036.94;5033064;28;19957;-83
2023/09/20 12:07:52;;;;;;;;;;;;;;;8.83;100.00;99035.22;5032129;28;20024;-85
2023/09/20 12:10:18;;;;;;;;;;;;;;;8.84;100.00;99036.06;5031615;28;19932;-81
2023/09/20 12:12:43;;;;;;;;;;;;;;;8.78;100.00;99028.47;5031976;28;19921;-81
2023/09/20 12:15:09;;;;;;;;;;;;;;;8.88;100.00;99025.28;5032422;28;19921;-84
2023/09/20 12:17:34;;;;;;;;;;;;;;;8.89;100.00;99021.72;5047454;28;19925;-85
2023/09/20 12:19:59;;;;;;;;;;;;;;;8.88;100.00;99017.34;5032079;28;20063;-81
2023/09/20 12:22:25;;;;;;;;;;;;;;;8.85;100.00;99016.66;5033007;28;19925;-92
2023/09/20 12:24:53;;;;;;;;;;;;;;;8.78;100.00;99007.34;5031758;28;19923;-87
2023/09/20 12:27:18;;;;;;;;;;;;;;;8.74;100.00;99017.16;5031824;28;19925;-84
2023/09/20 12:29:44;;;;;;;;;;;;;;;8.84;100.00;99013.16;5031232;28;20376;-83
2023/09/20 12:32:11;;;;;;;;;;;;;;;8.97;100.00;99013.44;5031705;28;19920;-82
2023/09/20 12:34:36;;;;;;;;;;;;;;;8.90;100.00;99002.31;5032456;28;19944;-83
2023/09/20 12:37:01;;;;;;;;;;;;;;;8.84;100.00;98992.03;5031640;28;20632;-83
2023/09/20 12:39:26;;;;;;;;;;;;;;;8.97;100.00;98988.81;5032437;28;20004;-82
2023/09/20 12:41:51;;;;;;;;;;;;;;;8.89;100.00;98990.03;5031182;28;19986;-81
2023/09/20 12:44:17;;;;;;;;;;;;;;;8.99;100.00;98979.84;5031413;28;19939;-87
2023/09/20 12:46:43;;;;;;;;;;;;;;;8.87;100.00;98981.31;5028970;28;20295;-84
2023/09/20 12:49:08;;;;;;;;;;;;;;;8.98;100.00;98979.94;5029207;28;20396;-80
2023/09/20 12:51:33;;;;;;;;;;;;;;;8.94;100.00;98975.75;5030936;28;19967;-82
2023/09/20 12:53:59;;;;;;;;;;;;;;;8.96;100.00;98979.16;5030887;28;19925;-79
2023/09/20 12:56:24;;;;;;;;;;;;;;;8.96;100.00;98973.88;5031085;28;20012;-80
2023/09/20 12:58:50;;;;;;;;;;;;;;;8.91;100.00;98977.59;5028169;28;19921;-80
2023/09/20 13:01:16;;;;;;;;;;;;;;;8.98;100.00;98961.44;5032034;28;19940;-80
2023/09/20 13:03:41;;;;;;;;;;;;;;;9.01;100.00;98953.34;5030252;28;19917;-81
2023/09/20 13:06:08;;;;;;;;;;;;;;;8.97;100.00;98959.75;5028687;28;19922;-80
2023/09/20 13:08:33;;;;;;;;;;;;;;;9.04;100.00;98961.13;5045273;28;19932;-80
2023/09/20 13:10:59;;;;;;;;;;;;;;;9.04;100.00;98956.69;5029800;28;19921;-80
2023/09/20 13:13:24;;;;;;;;;;;;;;;8.99;100.00;98953.44;5028857;28;19925;-80
2023/09/20 13:15:50;;;;;;;;;;;;;;;8.97;100.00;98943.91;5030474;28;19921;-79
2023/09/20 13:18:18;;;;;;;;;;;;;;;9.06;100.00;98948.69;5031724;28;20395;-85
2023/09/20 13:20:44;;;;;;;;;;;;;;;9.08;100.00;98937.13;5031892;28;19979;-82
2023/09/20 13:23:10;;;;;;;;;;;;;;;9.11;100.00;98925.56;5031730;28;20403;-82
2023/09/20 13:25:35;;;;;;;;;;;;;;;9.01;100.00;98926.94;5029979;28;19925;-82
2023/09/20 13:28:00;;;;;;;;;;;;;;;9.01;100.00;98932.22;5029152;28;19928;-83
2023/09/20 13:30:26;;;;;;;;;;;;;;;9.00;100.00;98922.56;5029572;28;20400;-87
2023/09/20 13:32:52;;;;;;;;;;;;;;;9.05;100.00;98917.94;5031633;28;19921;-81
2023/09/20 13:35:18;;;;;;;;;;;;;;;9.00;100.00;98910.25;5030179;28;19921;-82
2023/09/20 13:37:45;;;;;;;;;;;;;;;8.97;100.00;98907.75;5031756;28;20569;-79
2023/09/20 13:40:18;;;;;;;;;;;;;;;9.07;100.00;98906.34;5030977;28;19925;-80
2023/09/20 13:42:44;;;;;;;;;;;;;;;9.13;100.00;98905.19;5029673;28;19928;-84
2023/09/20 13:45:10;;;;;;;;;;;;;;;9.09;100.00;98898.34;5035667;28;19917;-81
2023/09/20 13:47:35;;;;;;;;;;;;;;;9.12;100.00;98890.25;5035229;28;19921;-84
2023/09/20 13:50:07;;;;;;;;;;;;;;;9.04;100.00;98893.28;5033171;28;19929;-81
2023/09/20 13:52:32;;;;;;;;;;;;;;;8.99;100.00;98884.72;5035244;28;19921;-81
2023/09/20 13:54:58;;;;;;;;;;;;;;;9.07;100.00;98881.72;5033797;28;19928;-80
2023/09/20 13:57:23;;;;;;;;;;;;;;;9.09;100.00;98877.19;5033081;28;20287;-80
2023/09/20 13:59:48;;;;;;;;;;;;;;;9.11;100.00;98872.69;5033579;28;19929;-81
2023/09/20 14:02:15;;;;;;;;;;;;;;;9.07;100.00;98871.13;5035110;28;19917;-84
2023/09/20 14:04:41;;;;;;;;;;;;;;;9.16;100.00;98873.31;5033747;28;19928;-88
2023/09/20 14:07:08;;;;;;;;;;;;;;;9.16;100.00;98865.38;5035027;28;19965;-83
2023/09/20 14:09:34;;;;;;;;;;;;;;;9.19;100.00;98859.94;5034106;28;19925;-84
2023/09/20 14:12:00;;;;;;;;;;;;;;;9.15;100.00;98865.47;5033725;28;19921;-81
2023/09/20 14:14:27;;;;;;;;;;;;;;;9.13;100.00;98865.53;5033343;28;19917;-81
2023/09/20 14:16:52;;;;;;;;;;;;;;;9.21;100.00;98865.16;5033077;28;19917;-82
2023/09/20 14:19:19;;;;;;;;;;;;;;;9.17;100.00;98860.94;5034686;28;19972;-82
2023/09/20 14:21:46;;;;;;;;;;;;;;;9.17;100.00;98856.50;5033524;28;20008;-79
2023/09/20 14:24:13;;;;;;;;;;;;;;;9.14;100.00;98854.00;5034792;28;20368;-81
2023/09/20 14:26:38;;;;;;;;;;;;;;;9.16;100.00;98852.16;5034585;28;19921;-82
2023/09/20 14:29:09;;;;;;;;;;;;;;;9.16;100.00;98846.88;5032789;28;19931;-82
2023/09/20 14:31:35;;;;;;;;;;;;;;;9.14;100.00;98853.16;5033285;28;19956;-81
2023/09/20 14:34:00;;;;;;;;;;;;;;;9.15;100.00;98850.44;5033580;28;20419;-83
2023/09/20 14:36:25;;;;;;;;;;;;;;;9.14;100.00;98846.09;5034562;28;19993;-85
2023/09/20 14:38:51;;;;;;;;;;;;;;;9.30;100.00;98851.44;5033616;28;19929;-82
2023/09/20 14:41:16;;;;;;;;;;;;;;;9.26;100.00;98850.75;5034487;28;19917;-83
2023/09/20 14:43:41;;;;;;;;;;;;;;;9.22;100.00;98849.22;5032057;28;19921;-81
2023/09/20 14:46:06;;;;;;;;;;;;;;;9.25;100.00;98846.41;5034471;28;19917;-82
2023/09/20 14:48:35;;;;;;;;;;;;;;;9.24;100.00;98839.41;5033440;28;20441;-90
2023/09/20 14:51:03;;;;;;;;;;;;;;;9.20;100.00;98837.84;5031310;28;19921;-85
2023/09/20 14:53:28;;;;;;;;;;;;;;;9.16;100.00;98836.31;5033153;28;19978;-87
2023/09/20 14:55:54;;;;;;;;;;;;;;;9.19;100.00;98828.22;5033395;28;19917;-84
2023/09/20 14:58:20;;;;;;;;;;;;;;;9.28;100.00;98826.88;5032213;28;19927;-84
2023/09/20 15:00:49;;;;;;;;;;;;;;;9.27;100.00;98818.09;5015944;28;19972;-84
2023/09/20 15:03:15;;;;;;;;;;;;;;;9.29;100.00;98817.16;5033510;28;19928;-84
2023/09/20 15:05:41;;;;;;;;;;;;;;;9.30;100.00;98817.06;5033999;28;19917;-83
2023/09/20 15:08:08;;;;;;;;;;;;;;;9.31;100.00;98831.16;5032165;28;19921;-83
2023/09/20 15:10:34;;;;;;;;;;;;;;;9.30;100.00;98818.88;5032453;28;20020;-85
2023/09/20 15:13:01;;;;;;;;;;;;;;;9.29;100.00;98811.88;5032835;28;19917;-83
2023/09/20 15:15:30;;;;;;;;;;;;;;;9.39;100.00;98811.28;5033877;28;20404;-83
2023/09/20 15:17:56;;;;;;;;;;;;;;;9.35;100.00;98811.53;5032178;28;19925;-82
2023/09/20 15:20:22;;;;;;;;;;;;;;;9.33;100.00;98801.03;5032253;28;19917;-82
2023/09/20 15:22:47;;;;;;;;;;;;;;;9.33;100.00;98798.41;5032424;28;19921;-82
2023/09/20 15:25:14;;;;;;;;;;;;;;;9.29;100.00;98788.94;5033023;28;19917;-85
2023/09/20 15:27:40;;;;;;;;;;;;;;;9.24;100.00;98793.63;5031052;28;20729;-86
2023/09/20 15:30:06;;;;;;;;;;;;;;;9.25;100.00;98787.38;5030785;28;19928;-88
2023/09/20 15:32:32;;;;;;;;;;;;;;;9.25;100.00;98788.25;5029743;28;19948;-84
2023/09/20 15:34:57;;;;;;;;;;;;;;;9.31;100.00;98779.13;5032539;28;20406;-82
2023/09/20 15:37:24;;;;;;;;;;;;;;;9.22;100.00;98783.13;5032584;28;20012;-82
2023/09/20 15:39:49;;;;;;;;;;;;;;;9.31;100.00;98780.94;5031376;28;19968;-83
2023/09/20 15:42:15;;;;;;;;;;;;;;;9.28;100.00;98779.28;5031503;28;19968;-80
2023/09/20 15:44:40;;;;;;;;;;;;;;;9.37;100.00;98770.03;5027350;28;19995;-81
2023/09/20 15:47:05;;;;;;;;;;;;;;;9.47;100.00;98773.03;5032295;28;19924;-88
2023/09/20 15:49:33;;;;;;;;;;;;;;;9.24;100.00;98768.03;5029158;28;19996;-91
2023/09/20 15:51:59;;;;;;;;;;;;;;;9.29;100.00;98764.31;5030647;28;19932;-83
2023/09/20 15:54:25;;;;;;;;;;;;;;;9.38;100.00;98769.06;5028116;28;20013;-81
2023/09/20 15:56:50;;;;;;;;;;;;;;;9.38;100.00;98754.09;5030959;28;20358;-81
2023/09/20 15:59:16;;;;;;;;;;;;;;;9.42;100.00;98760.88;5029227;28;19976;-81
2023/09/20 16:01:41;;;;;;;;;;;;;;;9.38;100.00;98758.50;5032079;28;20015;-82
2023/09/20 16:04:07;;;;;;;;;;;;;;;9.32;100.00;98761.47;5032424;28;19921;-82
2023/09/20 16:06:35;;;;;;;;;;;;;;;9.36;100.00;98758.56;5030524;28;19921;-81
2023/09/20 16:09:01;;;;;;;;;;;;;;;9.36;100.00;98750.66;5028860;28;20368;-84
2023/09/20 16:11:27;;;;;;;;;;;;;;;9.36;100.00;98750.66;5030722;28;19921;-83
2023/09/20 16:13:52;;;;;;;;;;;;;;;9.41;100.00;98753.03;5032317;28;19917;-87
2023/09/20 16:16:18;;;;;;;;;;;;;;;9.32;100.00;98750.91;5029899;28;20044;-83
2023/09/20 16:18:45;;;;;;;;;;;;;;;9.31;100.00;98742.13;5028606;28;19921;-86
2023/09/20 16:21:10;;;;;;;;;;;;;;;9.38;100.00;98759.38;5029270;28;19925;-82
2023/09/20 16:23:36;;;;;;;;;;;;;;;9.34;100.00;98755.16;5031214;28;20058;-80
2023/09/20 16:26:01;;;;;;;;;;;;;;;9.26;100.00;98755.59;5031675;28;19932;-83
2023/09/20 16:28:27;;;;;;;;;;;;;;;9.32;100.00;98746.47;5028741;28;19932;-83
2023/09/20 16:30:52;;;;;;;;;;;;;;;9.34;100.00;98741.97;5028144;28;20291;-81
2023/09/20 16:33:17;;;;;;;;;;;;;;;9.26;100.00;98745.00;5028149;28;19921;-81
2023/09/20 16:35:42;;;;;;;;;;;;;;;9.43;100.00;98740.63;5029953;28;19925;-82
2023/09/20 16:38:08;;;;;;;;;;;;;;;9.41;100.00;98739.81;5030683;28;19937;-82
2023/09/20 16:40:34;;;;;;;;;;;;;;;9.36;100.00;98741.88;5026303;28;19927;-83
2023/09/20 16:42:59;;;;;;;;;;;;;;;9.32;100.00;98735.03;5024447;28;20044;-83
2023/09/20 16:45:24;;;;;;;;;;;;;;;9.33;100.00;98734.94;5030584;28;19941;-81
2023/09/20 16:47:50;;;;;;;;;;;;;;;9.42;100.00;98731.81;5031389;28;20427;-82
2023/09/20 16:50:15;;;;;;;;;;;;;;;9.35;100.00;98733.09;5028306;28;19921;-82
2023/09/20 16:52:40;;;;;;;;;;;;;;;9.32;100.00;98727.97;5028294;28;19925;-82
2023/09/20 16:55:06;;;;;;;;;;;;;;;9.30;100.00;98724.53;5030062;28;20376;-84
2023/09/20 16:57:32;;;;;;;;;;;;;;;9.40;100.00;98727.56;5028241;28;19931;-81
2023/09/20 16:59:58;;;;;;;;;;;;;;;9.34;100.00;98731.38;5028223;28;19968;-82
2023/09/20 17:02:24;;;;;;;;;;;;;;;9.33;100.00;98718.25;5030316;28;19967;-85
2023/09/20 17:04:49;;;;;;;;;;;;;;;9.25;100.00;98727.47;5028954;28;19925;-81
2023/09/20 17:07:15;;;;;;;;;;;;;;;9.27;100.00;98725.56;5029881;28;20371;-82
2023/09/20 17:09:41;;;;;;;;;;;;;;;9.29;100.00;98722.00;5029322;28;19921;-81
2023/09/20 17:12:07;;;;;;;;;;;;;;;9.35;100.00;98729.56;5029153;28;19918;-83
2023/09/20 17:14:34;;;;;;;;;;;;;;;9.27;100.00;98720.28;5026679;28;19948;-81
2023/09/20 17:16:59;;;;;;;;;;;;;;;9.28;100.00;98718.50;5029666;28;19921;-81
2023/09/20 17:19:25;;;;;;;;;;;;;;;9.25;100.00;98714.25;5032887;28;20007;-85
2023/09/20 17:21:51;;;;;;;;;;;;;;;9.29;100.00;98716.72;5034911;28;19921;-81
2023/09/20 17:24:20;;;;;;;;;;;;;;;9.28;100.00;98715.84;5033374;28;20303;-88
2023/09/20 17:26:45;;;;;;;;;;;;;;;9.25;100.00;98711.59;5033479;28;20340;-81
2023/09/20 17:29:11;;;;;;;;;;;;;;;9.26;100.00;98713.28;5032331;28;20020;-81
2023/09/20 17:31:36;;;;;;;;;;;;;;;9.21;100.00;98719.78;5030537;28;19922;-82
2023/09/20 17:34:03;;;;;;;;;;;;;;;9.17;100.00;98719.06;5033760;28;19967;-81
2023/09/20 17:36:29;;;;;;;;;;;;;;;9.19;100.00;98716.34;5033272;28;19998;-82
2023/09/20 17:38:54;;;;;;;;;;;;;;;9.23;100.00;98709.97;5032213;28;20343;-82
2023/09/20 17:41:19;;;;;;;;;;;;;;;9.20;100.00;98702.19;5034350;28;19917;-85
2023/09/20 17:43:45;;;;;;;;;;;;;;;9.18;100.00;98710.22;5033764;28;19925;-81
2023/09/20 17:46:10;;;;;;;;;;;;;;;9.16;100.00;98717.38;5017429;28;19961;-82
2023/09/20 17:48:35;;;;;;;;;;;;;;;9.18;100.00;98712.84;5035035;28;19916;-83
2023/09/20 17:51:02;;;;;;;;;;;;;;;9.15;100.00;98710.38;5035298;28;19925;-82
2023/09/20 17:53:28;;;;;;;;;;;;;;;9.15;100.00;98714.81;5034434;28;19917;-81
2023/09/20 17:55:53;;;;;;;;;;;;;;;9.20;100.00;98708.34;5034329;28;20325;-82
2023/09/20 17:58:18;;;;;;;;;;;;;;;9.19;100.00;98711.94;5032207;28;20002;-81
2023/09/20 18:00:44;;;;;;;;;;;;;;;9.16;100.00;98704.16;5034858;28;19921;-81
2023/09/20 18:03:10;;;;;;;;;;;;;;;9.16;100.00;98714.75;5032376;28;20827;-81
2023/09/20 18:05:35;;;;;;;;;;;;;;;9.21;100.00;98707.41;5033246;28;19924;-84
2023/09/20 18:08:03;;;;;;;;;;;;;;;9.16;100.00;98712.09;5034830;28;19927;-81
2023/09/20 18:10:29;;;;;;;;;;;;;;;9.16;100.00;98709.44;5032648;28;19925;-85
2023/09/20 18:12:54;;;;;;;;;;;;;;;9.16;100.00;98713.88;5032134;28;19923;-81
2023/09/20 18:15:20;;;;;;;;;;;;;;;9.21;100.00;98711.84;5034008;28;19924;-80
2023/09/20 18:17:45;;;;;;;;;;;;;;;9.18;100.00;98714.66;5033149;28;19921;-81
2023/09/20 18:20:11;;;;;;;;;;;;;;;9.12;100.00;98714.97;5033926;28;19936;-85
2023/09/20 18:22:36;;;;;;;;;;;;;;;12.97;100.00;98703.72;5032978;28;19917;-81
2023/09/20 18:25:05;;;;;;;;;;;;;;;10.36;100.00;98709.78;5033202;28;19925;-81
2023/09/20 18:27:31;;;;;;;;;;;;;;;9.89;100.00;98714.25;5029426;28;19928;-81
2023/09/20 18:29:56;;;;;;;;;;;;;;;9.57;100.00;98716.91;5030386;28;19921;-82
2023/09/20 18:32:24;;;;;;;;;;;;;;;9.59;100.00;98714.19;5033586;28;19928;-81
2023/09/20 18:34:49;;;;;;;;;;;;;;;9.53;100.00;98704.78;5032764;28;20357;-80
2023/09/20 18:37:16;;;;;;;;;;;;;;;9.37;100.00;98706.56;5031596;28;20012;-81
2023/09/20 18:39:43;;;;;;;;;;;;;;;9.36;100.00;98702.22;5031398;28;20443;-80
2023/09/20 18:42:09;;;;;;;;;;;;;;;9.36;100.00;98703.06;5030725;28;19929;-79
2023/09/20 18:44:36;;;;;;;;;;;;;;;9.31;100.00;98702.47;5032143;28;19947;-80
2023/09/20 18:47:01;;;;;;;;;;;;;;;9.25;100.00;98705.44;5032038;28;19932;-80
2023/09/20 18:49:26;;;;;;;;;;;;;;;9.30;100.00;98707.84;5033959;28;20272;-80
2023/09/20 18:51:51;;;;;;;;;;;;;;;9.21;100.00;98703.91;5031938;28;20360;-80
2023/09/20 18:54:17;;;;;;;;;;;;;;;9.02;100.00;98707.53;5031658;28;19944;-81
2023/09/20 18:56:42;;;;;;;;;;;;;;;9.01;100.00;98705.81;5031651;28;19928;-80
2023/09/20 18:59:07;;;;;;;;;;;;;;;8.89;100.00;98709.16;5030383;28;19948;-80
2023/09/20 19:01:33;;;;;;;;;;;;;;;8.81;100.00;98703.41;5032771;28;19987;-80
2023/09/20 19:04:00;;;;;;;;;;;;;;;8.72;100.00;98707.38;5033954;28;19925;-80
2023/09/20 19:06:25;;;;;;;;;;;;;;;8.62;100.00;98707.00;5031771;28;20369;-80
2023/09/20 19:08:52;;;;;;;;;;;;;;;8.58;100.00;98716.00;5032661;28;19966;-81
2023/09/20 19:11:21;;;;;;;;;;;;;;;8.50;100.00;98711.16;5031557;28;20395;-80
2023/09/20 19:13:46;;;;;;;;;;;;;;;8.46;100.00;98712.22;5031600;28;19921;-81
2023/09/20 19:16:12;;;;;;;;;;;;;;;8.37;100.00;98718.78;5033924;28;19921;-81